sensor_id;sensor_type;location;lat;lon;timestamp;temperature;humidity
47310;DHT22;33046;52.270;6.832;2023-05-09T00:01:20;18.70;99.90
47310;DHT22;33046;52.270;6.832;2023-05-09T00:03:26;18.60;99.90
47310;DHT22;33046;52.270;6.832;2023-05-09T00:05:35;18.60;99.90
47310;DHT22;33046;52.270;6.832;2023-05-09T00:07:41;18.60;99.90
47310;DHT22;33046;52.270;6.832;2023-05-09T00:09:48;18.60;99.90
47310;DHT22;33046;52.270;6.832;2023-05-09T00:11:55;18.60;99.90
47310;DHT22;33046;52.270;6.832;2023-05-09T00:14:02;18.60;99.90
47310;DHT22;33046;52.270;6.832;2023-05-09T00:16:08;18.60;99.90
47310;DHT22;33046;52.270;6.832;2023-05-09T00:18:15;18.60;99.90
47310;DHT22;33046;52.270;6.832;2023-05-09T00:20:22;18.60;99.90
47310;DHT22;33046;52.270;6.832;2023-05-09T00:22:30;18.60;99.90
47310;DHT22;33046;52.270;6.832;2023-05-09T00:24:37;18.50;99.90
47310;DHT22;33046;52.270;6.832;2023-05-09T00:26:44;18.60;99.90
47310;DHT22;33046;52.270;6.832;2023-05-09T00:28:50;18.50;99.90
47310;DHT22;33046;52.270;6.832;2023-05-09T00:30:57;18.60;99.90
47310;DHT22;33046;52.270;6.832;2023-05-09T00:33:04;18.60;99.90
47310;DHT22;33046;52.270;6.832;2023-05-09T00:35:11;18.50;99.90
47310;DHT22;33046;52.270;6.832;2023-05-09T00:37:18;18.50;99.90
47310;DHT22;33046;52.270;6.832;2023-05-09T00:39:26;18.50;99.90
47310;DHT22;33046;52.270;6.832;2023-05-09T00:41:33;18.50;99.90
47310;DHT22;33046;52.270;6.832;2023-05-09T00:43:40;18.50;99.90
47310;DHT22;33046;52.270;6.832;2023-05-09T00:45:47;18.50;99.90
47310;DHT22;33046;52.270;6.832;2023-05-09T00:47:54;18.50;99.90
47310;DHT22;33046;52.270;6.832;2023-05-09T00:50:01;18.50;99.90
47310;DHT22;33046;52.270;6.832;2023-05-09T00:52:08;18.50;99.90
47310;DHT22;33046;52.270;6.832;2023-05-09T00:54:15;18.50;99.90
47310;DHT22;33046;52.270;6.832;2023-05-09T00:56:23;18.50;99.90
47310;DHT22;33046;52.270;6.832;2023-05-09T00:58:30;18.50;99.90
47310;DHT22;33046;52.270;6.832;2023-05-09T01:00:37;18.50;99.90
47310;DHT22;33046;52.270;6.832;2023-05-09T01:02:45;18.50;99.90
47310;DHT22;33046;52.270;6.832;2023-05-09T01:04:53;18.50;99.90
47310;DHT22;33046;52.270;6.832;2023-05-09T01:07:04;18.40;99.90
47310;DHT22;33046;52.270;6.832;2023-05-09T01:09:18;18.40;99.90
47310;DHT22;33046;52.270;6.832;2023-05-09T01:11:30;18.40;99.90
47310;DHT22;33046;52.270;6.832;2023-05-09T01:13:43;18.40;99.90
47310;DHT22;33046;52.270;6.832;2023-05-09T01:15:55;18.40;99.90
47310;DHT22;33046;52.270;6.832;2023-05-09T01:18:09;18.40;99.90
47310;DHT22;33046;52.270;6.832;2023-05-09T01:20:22;18.40;99.90
47310;DHT22;33046;52.270;6.832;2023-05-09T01:22:33;18.40;99.90
47310;DHT22;33046;52.270;6.832;2023-05-09T01:25:03;18.40;99.90
47310;DHT22;33046;52.270;6.832;2023-05-09T01:27:20;18.30;99.90
47310;DHT22;33046;52.270;6.832;2023-05-09T01:29:36;18.40;99.90
47310;DHT22;33046;52.270;6.832;2023-05-09T01:31:44;18.30;99.90
47310;DHT22;33046;52.270;6.832;2023-05-09T01:33:57;18.30;99.90
47310;DHT22;33046;52.270;6.832;2023-05-09T01:36:08;18.30;99.90
47310;DHT22;33046;52.270;6.832;2023-05-09T01:38:20;18.30;99.90
47310;DHT22;33046;52.270;6.832;2023-05-09T01:40:30;18.30;99.90
47310;DHT22;33046;52.270;6.832;2023-05-09T01:42:41;18.20;99.90
47310;DHT22;33046;52.270;6.832;2023-05-09T01:44:50;18.20;99.90
47310;DHT22;33046;52.270;6.832;2023-05-09T01:46:59;18.20;99.90
47310;DHT22;33046;52.270;6.832;2023-05-09T01:49:07;18.20;99.90
47310;DHT22;33046;52.270;6.832;2023-05-09T01:51:15;18.20;99.90
47310;DHT22;33046;52.270;6.832;2023-05-09T01:53:23;18.20;99.90
47310;DHT22;33046;52.270;6.832;2023-05-09T01:55:33;18.20;99.90
47310;DHT22;33046;52.270;6.832;2023-05-09T01:57:42;18.10;99.90
47310;DHT22;33046;52.270;6.832;2023-05-09T01:59:51;18.10;99.90
47310;DHT22;33046;52.270;6.832;2023-05-09T02:01:59;18.10;99.90
47310;DHT22;33046;52.270;6.832;2023-05-09T02:04:06;18.10;99.90
47310;DHT22;33046;52.270;6.832;2023-05-09T02:06:14;18.10;99.90
47310;DHT22;33046;52.270;6.832;2023-05-09T02:08:22;18.10;99.90
47310;DHT22;33046;52.270;6.832;2023-05-09T02:10:29;18.10;99.90
47310;DHT22;33046;52.270;6.832;2023-05-09T02:12:37;18.10;99.90
47310;DHT22;33046;52.270;6.832;2023-05-09T02:14:44;18.10;99.90
47310;DHT22;33046;52.270;6.832;2023-05-09T02:16:52;18.00;99.90
47310;DHT22;33046;52.270;6.832;2023-05-09T02:18:59;18.10;99.90
47310;DHT22;33046;52.270;6.832;2023-05-09T02:21:06;18.00;99.90
47310;DHT22;33046;52.270;6.832;2023-05-09T02:23:13;18.00;99.90
47310;DHT22;33046;52.270;6.832;2023-05-09T02:25:20;18.00;99.90
47310;DHT22;33046;52.270;6.832;2023-05-09T02:27:27;18.00;99.90
47310;DHT22;33046;52.270;6.832;2023-05-09T02:29:36;18.00;99.90
47310;DHT22;33046;52.270;6.832;2023-05-09T02:31:44;18.00;99.90
47310;DHT22;33046;52.270;6.832;2023-05-09T02:33:54;18.00;99.90
47310;DHT22;33046;52.270;6.832;2023-05-09T02:36:01;18.00;99.90
47310;DHT22;33046;52.270;6.832;2023-05-09T02:38:09;18.00;99.90
47310;DHT22;33046;52.270;6.832;2023-05-09T02:40:17;18.00;99.90
47310;DHT22;33046;52.270;6.832;2023-05-09T02:42:25;17.90;99.90
47310;DHT22;33046;52.270;6.832;2023-05-09T02:44:32;18.00;99.90
47310;DHT22;33046;52.270;6.832;2023-05-09T02:46:39;17.90;99.90
47310;DHT22;33046;52.270;6.832;2023-05-09T02:48:46;17.90;99.90
47310;DHT22;33046;52.270;6.832;2023-05-09T02:50:54;17.90;99.90
47310;DHT22;33046;52.270;6.832;2023-05-09T02:53:01;17.90;99.90
47310;DHT22;33046;52.270;6.832;2023-05-09T02:55:08;17.90;99.90
47310;DHT22;33046;52.270;6.832;2023-05-09T02:57:18;17.90;99.90
47310;DHT22;33046;52.270;6.832;2023-05-09T02:59:25;17.90;99.90
47310;DHT22;33046;52.270;6.832;2023-05-09T03:01:32;17.90;99.90
47310;DHT22;33046;52.270;6.832;2023-05-09T03:03:39;17.90;99.90
47310;DHT22;33046;52.270;6.832;2023-05-09T03:05:46;17.90;99.90
47310;DHT22;33046;52.270;6.832;2023-05-09T03:07:54;17.90;99.90
47310;DHT22;33046;52.270;6.832;2023-05-09T03:10:01;17.90;99.90
47310;DHT22;33046;52.270;6.832;2023-05-09T03:12:10;17.90;99.90
47310;DHT22;33046;52.270;6.832;2023-05-09T03:14:16;17.90;99.90
47310;DHT22;33046;52.270;6.832;2023-05-09T03:16:23;17.90;99.90
47310;DHT22;33046;52.270;6.832;2023-05-09T03:18:30;17.90;99.90
47310;DHT22;33046;52.270;6.832;2023-05-09T03:20:37;17.90;99.90
47310;DHT22;33046;52.270;6.832;2023-05-09T03:22:44;17.80;99.90
47310;DHT22;33046;52.270;6.832;2023-05-09T03:24:52;17.90;99.90
47310;DHT22;33046;52.270;6.832;2023-05-09T03:26:59;17.90;99.90
47310;DHT22;33046;52.270;6.832;2023-05-09T03:29:06;17.90;99.90
47310;DHT22;33046;52.270;6.832;2023-05-09T03:31:13;17.90;99.90
47310;DHT22;33046;52.270;6.832;2023-05-09T03:33:20;17.90;99.90
47310;DHT22;33046;52.270;6.832;2023-05-09T03:35:29;17.90;99.90
47310;DHT22;33046;52.270;6.832;2023-05-09T03:37:36;17.90;99.90
47310;DHT22;33046;52.270;6.832;2023-05-09T03:39:44;17.90;99.90
47310;DHT22;33046;52.270;6.832;2023-05-09T03:41:52;17.90;99.90
47310;DHT22;33046;52.270;6.832;2023-05-09T03:43:59;17.90;99.90
47310;DHT22;33046;52.270;6.832;2023-05-09T03:46:06;17.90;99.90
47310;DHT22;33046;52.270;6.832;2023-05-09T03:48:13;17.90;99.90
47310;DHT22;33046;52.270;6.832;2023-05-09T03:50:25;17.90;99.90
47310;DHT22;33046;52.270;6.832;2023-05-09T03:52:34;17.90;99.90
47310;DHT22;33046;52.270;6.832;2023-05-09T03:54:41;17.90;99.90
47310;DHT22;33046;52.270;6.832;2023-05-09T03:56:48;17.90;99.90
47310;DHT22;33046;52.270;6.832;2023-05-09T03:58:56;17.90;99.90
47310;DHT22;33046;52.270;6.832;2023-05-09T04:01:04;17.90;99.90
47310;DHT22;33046;52.270;6.832;2023-05-09T04:03:11;17.90;99.90
47310;DHT22;33046;52.270;6.832;2023-05-09T04:05:22;17.90;99.90
47310;DHT22;33046;52.270;6.832;2023-05-09T04:07:29;17.90;99.90
47310;DHT22;33046;52.270;6.832;2023-05-09T04:09:37;17.90;99.90
47310;DHT22;33046;52.270;6.832;2023-05-09T04:11:44;17.90;99.90
47310;DHT22;33046;52.270;6.832;2023-05-09T04:13:52;17.90;99.90
47310;DHT22;33046;52.270;6.832;2023-05-09T04:16:06;17.90;99.90
47310;DHT22;33046;52.270;6.832;2023-05-09T04:18:13;17.90;99.90
47310;DHT22;33046;52.270;6.832;2023-05-09T04:20:20;17.80;99.90
47310;DHT22;33046;52.270;6.832;2023-05-09T04:22:27;17.80;99.90
47310;DHT22;33046;52.270;6.832;2023-05-09T04:24:34;17.90;99.90
47310;DHT22;33046;52.270;6.832;2023-05-09T04:26:41;17.90;99.90
47310;DHT22;33046;52.270;6.832;2023-05-09T04:28:51;17.90;99.90
47310;DHT22;33046;52.270;6.832;2023-05-09T04:30:58;17.90;99.90
47310;DHT22;33046;52.270;6.832;2023-05-09T04:33:06;17.90;99.90
47310;DHT22;33046;52.270;6.832;2023-05-09T04:35:13;17.90;99.90
47310;DHT22;33046;52.270;6.832;2023-05-09T04:37:23;17.90;99.90
47310;DHT22;33046;52.270;6.832;2023-05-09T04:39:31;17.90;99.90
47310;DHT22;33046;52.270;6.832;2023-05-09T04:41:44;17.90;99.90
47310;DHT22;33046;52.270;6.832;2023-05-09T04:43:51;17.90;99.90
47310;DHT22;33046;52.270;6.832;2023-05-09T04:45:59;17.90;99.90
47310;DHT22;33046;52.270;6.832;2023-05-09T04:48:08;17.90;99.90
47310;DHT22;33046;52.270;6.832;2023-05-09T04:50:15;17.90;99.90
47310;DHT22;33046;52.270;6.832;2023-05-09T04:52:21;17.90;99.90
47310;DHT22;33046;52.270;6.832;2023-05-09T04:54:28;17.90;99.90
47310;DHT22;33046;52.270;6.832;2023-05-09T04:56:35;17.90;99.90
47310;DHT22;33046;52.270;6.832;2023-05-09T04:58:42;17.90;99.90
47310;DHT22;33046;52.270;6.832;2023-05-09T05:00:50;17.90;99.90
47310;DHT22;33046;52.270;6.832;2023-05-09T05:02:57;17.90;99.90
47310;DHT22;33046;52.270;6.832;2023-05-09T05:05:07;17.90;99.90
47310;DHT22;33046;52.270;6.832;2023-05-09T05:07:18;17.90;99.90
47310;DHT22;33046;52.270;6.832;2023-05-09T05:09:25;17.90;99.90
47310;DHT22;33046;52.270;6.832;2023-05-09T05:11:32;17.90;99.90
47310;DHT22;33046;52.270;6.832;2023-05-09T05:13:39;17.90;99.90
47310;DHT22;33046;52.270;6.832;2023-05-09T05:15:46;17.90;99.90
47310;DHT22;33046;52.270;6.832;2023-05-09T05:17:53;17.90;99.90
47310;DHT22;33046;52.270;6.832;2023-05-09T05:20:03;17.90;99.90
47310;DHT22;33046;52.270;6.832;2023-05-09T05:22:12;17.90;99.90
47310;DHT22;33046;52.270;6.832;2023-05-09T05:24:21;17.90;99.90
47310;DHT22;33046;52.270;6.832;2023-05-09T05:26:27;18.00;99.90
47310;DHT22;33046;52.270;6.832;2023-05-09T05:28:34;17.90;99.90
47310;DHT22;33046;52.270;6.832;2023-05-09T05:30:42;17.90;99.90
47310;DHT22;33046;52.270;6.832;2023-05-09T05:32:50;17.90;99.90
47310;DHT22;33046;52.270;6.832;2023-05-09T05:34:59;18.00;99.90
47310;DHT22;33046;52.270;6.832;2023-05-09T05:37:05;18.00;99.90
47310;DHT22;33046;52.270;6.832;2023-05-09T05:39:14;18.00;99.90
47310;DHT22;33046;52.270;6.832;2023-05-09T05:41:21;18.00;99.90
47310;DHT22;33046;52.270;6.832;2023-05-09T05:43:28;18.00;99.90
47310;DHT22;33046;52.270;6.832;2023-05-09T05:45:35;18.00;99.90
47310;DHT22;33046;52.270;6.832;2023-05-09T05:47:45;18.00;99.90
47310;DHT22;33046;52.270;6.832;2023-05-09T05:49:51;18.10;99.90
47310;DHT22;33046;52.270;6.832;2023-05-09T05:51:58;18.10;99.90
47310;DHT22;33046;52.270;6.832;2023-05-09T05:54:05;18.10;99.90
47310;DHT22;33046;52.270;6.832;2023-05-09T05:56:15;18.10;99.90
47310;DHT22;33046;52.270;6.832;2023-05-09T05:58:22;18.10;99.90
47310;DHT22;33046;52.270;6.832;2023-05-09T06:00:28;18.20;99.90
47310;DHT22;33046;52.270;6.832;2023-05-09T06:02:41;18.20;99.90
47310;DHT22;33046;52.270;6.832;2023-05-09T06:04:48;18.20;99.90
47310;DHT22;33046;52.270;6.832;2023-05-09T06:06:56;18.20;99.90
47310;DHT22;33046;52.270;6.832;2023-05-09T06:09:03;18.20;99.90
47310;DHT22;33046;52.270;6.832;2023-05-09T06:11:10;18.20;99.90
47310;DHT22;33046;52.270;6.832;2023-05-09T06:13:18;18.20;99.90
47310;DHT22;33046;52.270;6.832;2023-05-09T06:15:30;18.20;99.90
47310;DHT22;33046;52.270;6.832;2023-05-09T06:17:38;18.30;99.90
47310;DHT22;33046;52.270;6.832;2023-05-09T06:19:45;18.30;99.90
47310;DHT22;33046;52.270;6.832;2023-05-09T06:21:52;18.30;99.90
47310;DHT22;33046;52.270;6.832;2023-05-09T06:23:59;18.40;99.90
47310;DHT22;33046;52.270;6.832;2023-05-09T06:26:11;18.40;99.90
47310;DHT22;33046;52.270;6.832;2023-05-09T06:28:19;18.50;99.90
47310;DHT22;33046;52.270;6.832;2023-05-09T06:30:26;18.50;99.90
47310;DHT22;33046;52.270;6.832;2023-05-09T06:32:33;18.60;99.90
47310;DHT22;33046;52.270;6.832;2023-05-09T06:34:39;18.60;99.90
47310;DHT22;33046;52.270;6.832;2023-05-09T06:36:46;18.70;99.90
47310;DHT22;33046;52.270;6.832;2023-05-09T06:38:53;18.70;99.90
47310;DHT22;33046;52.270;6.832;2023-05-09T06:40:59;18.80;99.90
47310;DHT22;33046;52.270;6.832;2023-05-09T06:43:06;18.90;99.90
47310;DHT22;33046;52.270;6.832;2023-05-09T06:45:15;19.00;99.90
47310;DHT22;33046;52.270;6.832;2023-05-09T06:47:22;19.00;99.90
47310;DHT22;33046;52.270;6.832;2023-05-09T06:49:28;19.10;99.90
47310;DHT22;33046;52.270;6.832;2023-05-09T06:51:35;19.20;99.90
47310;DHT22;33046;52.270;6.832;2023-05-09T06:53:42;19.30;99.90
47310;DHT22;33046;52.270;6.832;2023-05-09T06:55:49;19.40;99.90
47310;DHT22;33046;52.270;6.832;2023-05-09T06:57:56;19.40;99.90
47310;DHT22;33046;52.270;6.832;2023-05-09T07:00:03;19.50;99.90
47310;DHT22;33046;52.270;6.832;2023-05-09T07:02:11;19.60;99.90
47310;DHT22;33046;52.270;6.832;2023-05-09T07:04:18;19.60;99.90
47310;DHT22;33046;52.270;6.832;2023-05-09T07:06:25;19.60;99.90
47310;DHT22;33046;52.270;6.832;2023-05-09T07:08:32;19.60;99.90
47310;DHT22;33046;52.270;6.832;2023-05-09T07:10:39;19.60;99.90
47310;DHT22;33046;52.270;6.832;2023-05-09T07:12:45;19.50;99.90
47310;DHT22;33046;52.270;6.832;2023-05-09T07:14:52;19.50;99.90
47310;DHT22;33046;52.270;6.832;2023-05-09T07:16:59;19.50;99.90
47310;DHT22;33046;52.270;6.832;2023-05-09T07:19:17;19.50;99.90
47310;DHT22;33046;52.270;6.832;2023-05-09T07:21:24;19.40;99.90
47310;DHT22;33046;52.270;6.832;2023-05-09T07:23:30;19.40;99.90
47310;DHT22;33046;52.270;6.832;2023-05-09T07:25:37;19.40;99.90
47310;DHT22;33046;52.270;6.832;2023-05-09T07:27:44;19.40;99.90
47310;DHT22;33046;52.270;6.832;2023-05-09T07:29:51;19.40;99.90
47310;DHT22;33046;52.270;6.832;2023-05-09T07:31:57;19.40;99.90
47310;DHT22;33046;52.270;6.832;2023-05-09T07:34:04;19.40;99.90
47310;DHT22;33046;52.270;6.832;2023-05-09T07:36:12;19.40;99.90
47310;DHT22;33046;52.270;6.832;2023-05-09T07:38:19;19.40;99.90
47310;DHT22;33046;52.270;6.832;2023-05-09T07:40:26;19.40;99.90
47310;DHT22;33046;52.270;6.832;2023-05-09T07:42:32;19.40;99.90
47310;DHT22;33046;52.270;6.832;2023-05-09T07:44:39;19.40;99.90
47310;DHT22;33046;52.270;6.832;2023-05-09T07:46:46;19.40;99.90
47310;DHT22;33046;52.270;6.832;2023-05-09T07:48:53;19.50;99.90
47310;DHT22;33046;52.270;6.832;2023-05-09T07:50:59;19.50;99.90
47310;DHT22;33046;52.270;6.832;2023-05-09T07:53:07;19.50;99.90
47310;DHT22;33046;52.270;6.832;2023-05-09T07:55:14;19.50;99.90
47310;DHT22;33046;52.270;6.832;2023-05-09T07:57:21;19.60;99.90
47310;DHT22;33046;52.270;6.832;2023-05-09T07:59:28;19.60;99.90
47310;DHT22;33046;52.270;6.832;2023-05-09T08:01:35;19.60;99.90
47310;DHT22;33046;52.270;6.832;2023-05-09T08:03:42;19.60;99.90
47310;DHT22;33046;52.270;6.832;2023-05-09T08:05:52;19.70;99.90
47310;DHT22;33046;52.270;6.832;2023-05-09T08:07:59;19.70;99.90
47310;DHT22;33046;52.270;6.832;2023-05-09T08:10:08;19.80;99.90
47310;DHT22;33046;52.270;6.832;2023-05-09T08:12:15;19.80;99.90
47310;DHT22;33046;52.270;6.832;2023-05-09T08:14:22;19.80;99.90
47310;DHT22;33046;52.270;6.832;2023-05-09T08:16:29;19.90;99.90
47310;DHT22;33046;52.270;6.832;2023-05-09T08:18:35;19.90;99.90
47310;DHT22;33046;52.270;6.832;2023-05-09T08:20:42;20.00;99.90
47310;DHT22;33046;52.270;6.832;2023-05-09T08:22:49;20.10;99.90
47310;DHT22;33046;52.270;6.832;2023-05-09T08:24:56;20.10;99.90
47310;DHT22;33046;52.270;6.832;2023-05-09T08:27:04;20.20;99.90
47310;DHT22;33046;52.270;6.832;2023-05-09T08:29:11;20.30;99.90
47310;DHT22;33046;52.270;6.832;2023-05-09T08:31:17;20.30;99.90
47310;DHT22;33046;52.270;6.832;2023-05-09T08:33:24;20.40;99.90
47310;DHT22;33046;52.270;6.832;2023-05-09T08:35:31;20.40;99.90
47310;DHT22;33046;52.270;6.832;2023-05-09T08:37:38;20.50;99.90
47310;DHT22;33046;52.270;6.832;2023-05-09T08:39:44;20.60;99.90
47310;DHT22;33046;52.270;6.832;2023-05-09T08:41:52;20.80;99.90
47310;DHT22;33046;52.270;6.832;2023-05-09T08:44:03;21.00;99.90
47310;DHT22;33046;52.270;6.832;2023-05-09T08:46:10;21.00;99.90
47310;DHT22;33046;52.270;6.832;2023-05-09T08:48:18;21.10;99.90
47310;DHT22;33046;52.270;6.832;2023-05-09T08:50:26;21.20;99.90
47310;DHT22;33046;52.270;6.832;2023-05-09T08:52:34;21.30;99.90
47310;DHT22;33046;52.270;6.832;2023-05-09T08:54:41;21.30;99.90
47310;DHT22;33046;52.270;6.832;2023-05-09T08:56:49;21.40;99.90
47310;DHT22;33046;52.270;6.832;2023-05-09T08:58:56;21.40;99.90
47310;DHT22;33046;52.270;6.832;2023-05-09T09:01:05;21.60;99.90
47310;DHT22;33046;52.270;6.832;2023-05-09T09:03:12;21.60;99.90
47310;DHT22;33046;52.270;6.832;2023-05-09T09:05:20;21.70;99.90
47310;DHT22;33046;52.270;6.832;2023-05-09T09:07:40;21.80;99.90
47310;DHT22;33046;52.270;6.832;2023-05-09T09:09:48;21.80;99.50
47310;DHT22;33046;52.270;6.832;2023-05-09T09:11:56;21.80;99.60
47310;DHT22;33046;52.270;6.832;2023-05-09T09:14:06;21.90;99.40
47310;DHT22;33046;52.270;6.832;2023-05-09T09:16:19;22.00;99.00
47310;DHT22;33046;52.270;6.832;2023-05-09T09:18:28;22.00;98.90
47310;DHT22;33046;52.270;6.832;2023-05-09T09:20:39;21.90;98.90
47310;DHT22;33046;52.270;6.832;2023-05-09T09:22:47;21.90;99.00
47310;DHT22;33046;52.270;6.832;2023-05-09T09:24:55;21.90;99.00
47310;DHT22;33046;52.270;6.832;2023-05-09T09:27:04;21.90;98.90
47310;DHT22;33046;52.270;6.832;2023-05-09T09:29:12;21.80;99.00
47310;DHT22;33046;52.270;6.832;2023-05-09T09:31:22;21.80;99.10
47310;DHT22;33046;52.270;6.832;2023-05-09T09:33:29;21.80;99.40
47310;DHT22;33046;52.270;6.832;2023-05-09T09:35:38;21.90;99.40
47310;DHT22;33046;52.270;6.832;2023-05-09T09:37:45;21.90;99.20
47310;DHT22;33046;52.270;6.832;2023-05-09T09:39:55;21.90;99.00
47310;DHT22;33046;52.270;6.832;2023-05-09T09:42:09;21.90;98.90
47310;DHT22;33046;52.270;6.832;2023-05-09T09:44:17;21.80;99.10
47310;DHT22;33046;52.270;6.832;2023-05-09T09:46:26;21.90;99.20
47310;DHT22;33046;52.270;6.832;2023-05-09T09:48:33;21.90;99.00
47310;DHT22;33046;52.270;6.832;2023-05-09T09:50:40;21.90;99.20
47310;DHT22;33046;52.270;6.832;2023-05-09T09:52:51;22.00;99.00
47310;DHT22;33046;52.270;6.832;2023-05-09T09:54:59;22.20;98.70
47310;DHT22;33046;52.270;6.832;2023-05-09T09:57:06;22.30;98.70
47310;DHT22;33046;52.270;6.832;2023-05-09T09:59:14;22.40;98.60
47310;DHT22;33046;52.270;6.832;2023-05-09T10:01:21;22.40;98.20
47310;DHT22;33046;52.270;6.832;2023-05-09T10:03:35;22.40;98.20
47310;DHT22;33046;52.270;6.832;2023-05-09T10:05:42;22.50;98.30
47310;DHT22;33046;52.270;6.832;2023-05-09T10:07:50;22.60;98.10
47310;DHT22;33046;52.270;6.832;2023-05-09T10:09:59;22.70;98.20
47310;DHT22;33046;52.270;6.832;2023-05-09T10:12:07;22.80;98.00
47310;DHT22;33046;52.270;6.832;2023-05-09T10:14:14;22.80;97.70
47310;DHT22;33046;52.270;6.832;2023-05-09T10:16:22;22.80;98.10
47310;DHT22;33046;52.270;6.832;2023-05-09T10:18:35;22.80;97.40
47310;DHT22;33046;52.270;6.832;2023-05-09T10:20:43;22.70;97.40
47310;DHT22;33046;52.270;6.832;2023-05-09T10:22:53;22.60;97.40
47310;DHT22;33046;52.270;6.832;2023-05-09T10:25:03;22.60;97.40
47310;DHT22;33046;52.270;6.832;2023-05-09T10:27:11;22.50;97.40
47310;DHT22;33046;52.270;6.832;2023-05-09T10:29:22;22.40;97.30
47310;DHT22;33046;52.270;6.832;2023-05-09T10:31:31;22.40;97.60
47310;DHT22;33046;52.270;6.832;2023-05-09T10:33:46;22.30;97.70
47310;DHT22;33046;52.270;6.832;2023-05-09T10:35:54;22.20;97.60
47310;DHT22;33046;52.270;6.832;2023-05-09T10:38:02;22.30;97.80
47310;DHT22;33046;52.270;6.832;2023-05-09T10:40:10;22.30;97.70
47310;DHT22;33046;52.270;6.832;2023-05-09T10:42:17;22.40;97.90
47310;DHT22;33046;52.270;6.832;2023-05-09T10:44:24;22.30;97.70
47310;DHT22;33046;52.270;6.832;2023-05-09T10:46:32;22.40;97.60
47310;DHT22;33046;52.270;6.832;2023-05-09T10:48:40;22.40;97.80
47310;DHT22;33046;52.270;6.832;2023-05-09T10:50:48;22.50;97.60
47310;DHT22;33046;52.270;6.832;2023-05-09T10:53:06;22.50;97.70
47310;DHT22;33046;52.270;6.832;2023-05-09T10:55:12;22.70;97.80
47310;DHT22;33046;52.270;6.832;2023-05-09T10:57:19;22.80;98.00
47310;DHT22;33046;52.270;6.832;2023-05-09T10:59:37;22.80;97.50
47310;DHT22;33046;52.270;6.832;2023-05-09T11:01:44;22.90;97.30
47310;DHT22;33046;52.270;6.832;2023-05-09T11:03:53;23.00;97.10
47310;DHT22;33046;52.270;6.832;2023-05-09T11:06:01;23.00;96.80
47310;DHT22;33046;52.270;6.832;2023-05-09T11:08:19;23.10;96.90
47310;DHT22;33046;52.270;6.832;2023-05-09T11:10:25;23.20;96.80
47310;DHT22;33046;52.270;6.832;2023-05-09T11:12:54;23.10;96.20
47310;DHT22;33046;52.270;6.832;2023-05-09T11:15:07;23.00;96.10
47310;DHT22;33046;52.270;6.832;2023-05-09T11:17:26;23.00;95.90
47310;DHT22;33046;52.270;6.832;2023-05-09T11:19:35;22.90;95.70
47310;DHT22;33046;52.270;6.832;2023-05-09T11:24:21;22.90;95.80
47310;DHT22;33046;52.270;6.832;2023-05-09T11:26:28;23.10;95.60
47310;DHT22;33046;52.270;6.832;2023-05-09T11:28:36;23.20;94.90
47310;DHT22;33046;52.270;6.832;2023-05-09T11:30:44;23.30;93.90
47310;DHT22;33046;52.270;6.832;2023-05-09T11:32:52;23.30;94.70
47310;DHT22;33046;52.270;6.832;2023-05-09T11:35:06;23.40;94.00
47310;DHT22;33046;52.270;6.832;2023-05-09T11:37:17;23.50;93.70
47310;DHT22;33046;52.270;6.832;2023-05-09T11:39:25;23.60;94.20
47310;DHT22;33046;52.270;6.832;2023-05-09T11:41:38;23.60;93.60
47310;DHT22;33046;52.270;6.832;2023-05-09T11:43:45;23.70;92.80
47310;DHT22;33046;52.270;6.832;2023-05-09T11:45:52;23.80;92.80
47310;DHT22;33046;52.270;6.832;2023-05-09T11:47:59;23.90;92.50
47310;DHT22;33046;52.270;6.832;2023-05-09T11:50:07;23.90;92.00
47310;DHT22;33046;52.270;6.832;2023-05-09T11:52:14;24.00;91.60
47310;DHT22;33046;52.270;6.832;2023-05-09T11:54:22;24.10;91.10
47310;DHT22;33046;52.270;6.832;2023-05-09T11:56:30;24.10;90.60
47310;DHT22;33046;52.270;6.832;2023-05-09T11:58:38;24.20;90.50
47310;DHT22;33046;52.270;6.832;2023-05-09T12:00:45;24.30;90.40
47310;DHT22;33046;52.270;6.832;2023-05-09T12:02:52;24.30;90.40
47310;DHT22;33046;52.270;6.832;2023-05-09T12:05:06;24.30;90.20
47310;DHT22;33046;52.270;6.832;2023-05-09T12:07:13;24.40;86.90
47310;DHT22;33046;52.270;6.832;2023-05-09T12:09:19;24.30;85.70
47310;DHT22;33046;52.270;6.832;2023-05-09T12:11:28;24.40;86.90
47310;DHT22;33046;52.270;6.832;2023-05-09T12:13:43;24.40;88.10
47310;DHT22;33046;52.270;6.832;2023-05-09T12:15:50;24.30;86.20
47310;DHT22;33046;52.270;6.832;2023-05-09T12:18:00;24.30;85.60
47310;DHT22;33046;52.270;6.832;2023-05-09T12:20:08;24.40;84.90
47310;DHT22;33046;52.270;6.832;2023-05-09T12:22:15;24.40;87.10
47310;DHT22;33046;52.270;6.832;2023-05-09T12:24:22;24.40;87.40
47310;DHT22;33046;52.270;6.832;2023-05-09T12:26:29;24.40;85.30
47310;DHT22;33046;52.270;6.832;2023-05-09T12:28:38;24.40;86.40
47310;DHT22;33046;52.270;6.832;2023-05-09T12:30:45;24.40;86.60
47310;DHT22;33046;52.270;6.832;2023-05-09T12:32:52;24.40;86.20
47310;DHT22;33046;52.270;6.832;2023-05-09T12:34:59;24.40;87.20
47310;DHT22;33046;52.270;6.832;2023-05-09T12:37:13;24.40;86.40
47310;DHT22;33046;52.270;6.832;2023-05-09T12:39:20;24.40;87.10
47310;DHT22;33046;52.270;6.832;2023-05-09T12:41:27;24.40;86.20
47310;DHT22;33046;52.270;6.832;2023-05-09T12:43:40;24.40;86.20
47310;DHT22;33046;52.270;6.832;2023-05-09T12:45:51;24.40;88.00
47310;DHT22;33046;52.270;6.832;2023-05-09T12:47:58;24.30;89.00
47310;DHT22;33046;52.270;6.832;2023-05-09T12:50:08;24.30;90.20
47310;DHT22;33046;52.270;6.832;2023-05-09T12:52:16;24.30;90.30
47310;DHT22;33046;52.270;6.832;2023-05-09T12:54:25;24.30;90.50
47310;DHT22;33046;52.270;6.832;2023-05-09T12:56:33;24.20;90.70
47310;DHT22;33046;52.270;6.832;2023-05-09T12:58:47;24.20;90.90
47310;DHT22;33046;52.270;6.832;2023-05-09T13:00:54;24.10;90.90
47310;DHT22;33046;52.270;6.832;2023-05-09T13:03:01;24.10;90.90
47310;DHT22;33046;52.270;6.832;2023-05-09T13:05:08;24.00;90.90
47310;DHT22;33046;52.270;6.832;2023-05-09T13:07:15;24.00;91.10
47310;DHT22;33046;52.270;6.832;2023-05-09T13:09:23;23.90;91.00
47310;DHT22;33046;52.270;6.832;2023-05-09T13:11:30;23.90;91.10
47310;DHT22;33046;52.270;6.832;2023-05-09T13:13:37;23.80;91.30
47310;DHT22;33046;52.270;6.832;2023-05-09T13:15:45;23.70;91.30
47310;DHT22;33046;52.270;6.832;2023-05-09T13:17:53;23.70;91.40
47310;DHT22;33046;52.270;6.832;2023-05-09T13:19:59;23.70;91.60
47310;DHT22;33046;52.270;6.832;2023-05-09T13:22:06;23.70;91.60
47310;DHT22;33046;52.270;6.832;2023-05-09T13:24:13;23.60;91.40
47310;DHT22;33046;52.270;6.832;2023-05-09T13:26:20;23.50;91.40
47310;DHT22;33046;52.270;6.832;2023-05-09T13:28:27;23.50;91.50
47310;DHT22;33046;52.270;6.832;2023-05-09T13:30:34;23.50;91.80
47310;DHT22;33046;52.270;6.832;2023-05-09T13:32:42;23.40;91.90